TAF and METAR

METAR for Adelaide Airport

YPAD 251330Z 12007KT CAVOK 11/05 Q1023 NOSIG
Report created 25. sep 15:30
wind 7 knots from ESE (120°) Clear sky Temperature 11° with dewpoint at 5° (Humidity 66.49%) Pressure 1023 hPa no significant weather change expected the next couple of hours

TAF for Adelaide Airport

TAF YPAD 251102Z 2512/2618 12008KT CAVOK FM251800 05010KT CAVOK FM260100 33010KT CAVOK FM260800 03010KT CAVOK FM261100 27012KT 9999 FEW015 FM261300 23008KT 9999 SCT015
Report created 25. sep 13:02

between 25. sep 14:00 - 26. sep 20:00

wind 8 knots from ESE (120°) Clear sky

From 25. sep 20:00

wind 10 knots from NE (050°) Clear sky

From 26. sep 03:00

wind 10 knots from NNW (330°) Clear sky

From 26. sep 10:00

wind 10 knots from NNE (030°) Clear sky

From 26. sep 13:00

wind 12 knots from W (270°) visibility > 10km some clouds (~25% cover) at 1500 feet

From 26. sep 15:00

wind 8 knots from SW (230°) visibility > 10km scattered clouds (~50% cover) at 1500 feet